Sacramento, California
Traffic Map
Current Weather Conditions
Sacramento, California
Clear
Clear
64°
Feels Like: 64°
Wind Chill: 64° Ceiling: Unl
Heat Index: 64° Visibility: 10mi
Dew Point: 51° Wind: 7mph
Humidity: 63% Direction: 150° (SSE)
Pressure: 29.78in Gusts: 0mph
Raw Report DataKSAC 310953Z AUTO 15006KT 10SM CLR 18/11 A2978 RMK AO2 SLP083 T01780106
Traffic Incident Summary
Active as of:
Severity:
Category:
InformationThere was an issue retrieving the traffic information for this location. Please try a different location or try again shortly.
Advertisements
Track Severe Weather on mobile